Time;durP1;ratioP1;P1;durP2;ratioP2;P2;SDS_P1;SDS_P2;PMS_P1;PMS_P2;Temp;Humidity;BMP_temperature;BMP_pressure;BME280_temperature;BME280_humidity;BME280_pressure;Samples;Min_cycle;Max_cycle;Signal;HPM_P1;HPM_P2
2022/03/03 00:00:22;;;;;;;34.17;18.70;;;-0.10;99.90;;;;;;5058519;28;20471;-74
2022/03/03 00:02:48;;;;;;;34.40;18.30;;;-0.20;99.90;;;;;;5058816;28;20028;-74
2022/03/03 00:05:13;;;;;;;34.92;18.70;;;-0.20;99.90;;;;;;5058547;28;20063;-74
2022/03/03 00:07:39;;;;;;;34.42;19.23;;;-0.10;99.90;;;;;;5058447;28;20067;-74
2022/03/03 00:10:06;;;;;;;38.05;19.35;;;-0.10;99.90;;;;;;5041794;28;20502;-74
2022/03/03 00:12:32;;;;;;;34.00;18.35;;;-0.10;99.90;;;;;;5076469;28;20024;-74
2022/03/03 00:14:58;;;;;;;38.20;19.08;;;-0.20;99.90;;;;;;5076112;28;20525;-74
2022/03/03 00:17:23;;;;;;;35.88;18.08;;;-0.10;99.90;;;;;;5076234;28;20024;-74
2022/03/03 00:19:49;;;;;;;37.28;18.98;;;-0.10;99.90;;;;;;5058296;28;20402;-74
2022/03/03 00:22:15;;;;;;;35.08;18.92;;;-0.10;99.90;;;;;;5058371;28;20017;-74
2022/03/03 00:24:41;;;;;;;31.02;17.98;;;-0.20;99.90;;;;;;5041755;28;20545;-74
2022/03/03 00:27:07;;;;;;;32.58;17.90;;;-0.20;99.90;;;;;;5076203;28;20103;-74
2022/03/03 00:29:32;;;;;;;33.50;18.77;;;-0.20;99.90;;;;;;5058066;28;20107;-74
2022/03/03 00:31:58;;;;;;;32.72;18.27;;;-0.20;99.90;;;;;;5076104;28;20021;-74
2022/03/03 00:34:24;;;;;;;31.98;18.33;;;-0.30;99.90;;;;;;5075884;28;20027;-74
2022/03/03 00:36:49;;;;;;;33.90;17.92;;;-0.30;99.90;;;;;;5058026;28;20033;-74
2022/03/03 00:39:15;;;;;;;32.28;17.33;;;-0.40;99.90;;;;;;5075871;28;20025;-74
2022/03/03 00:41:41;;;;;;;31.63;18.08;;;-0.40;99.90;;;;;;5075896;28;20017;-74
2022/03/03 00:44:06;;;;;;;37.40;19.35;;;-0.40;99.90;;;;;;5075758;28;20389;-73
2022/03/03 00:46:33;;;;;;;31.42;18.05;;;-0.40;99.90;;;;;;5057734;28;20074;-74
2022/03/03 00:48:59;;;;;;;34.42;18.67;;;-0.50;99.90;;;;;;5075401;28;20082;-74
2022/03/03 00:51:25;;;;;;;36.05;19.33;;;-0.50;99.90;;;;;;5057648;28;20028;-74
2022/03/03 00:53:51;;;;;;;32.35;17.60;;;-0.60;99.90;;;;;;5057571;28;20044;-74
2022/03/03 00:56:17;;;;;;;29.95;17.20;;;-0.60;99.90;;;;;;5075452;28;20025;-73
2022/03/03 00:58:43;;;;;;;30.10;17.23;;;-0.70;99.90;;;;;;5057826;28;20070;-74
2022/03/03 01:01:08;;;;;;;30.33;16.73;;;-0.70;99.90;;;;;;5075427;28;20025;-73
2022/03/03 01:03:34;;;;;;;29.92;16.52;;;-0.80;99.90;;;;;;5075366;28;20390;-74
2022/03/03 01:05:59;;;;;;;31.52;18.00;;;-0.80;99.90;;;;;;5075275;28;20031;-74
2022/03/03 01:08:25;;;;;;;35.35;18.70;;;-0.70;99.90;;;;;;5075324;28;20040;-74
2022/03/03 01:10:51;;;;;;;38.50;19.35;;;-0.70;99.90;;;;;;5075214;28;20428;-74
2022/03/03 01:13:16;;;;;;;31.48;18.25;;;-0.60;99.90;;;;;;5057196;28;20033;-73
2022/03/03 01:15:43;;;;;;;37.38;19.92;;;-0.70;99.90;;;;;;5074739;28;20052;-73
2022/03/03 01:18:08;;;;;;;32.42;18.55;;;-0.70;99.90;;;;;;5040460;28;20031;-74
2022/03/03 01:20:34;;;;;;;35.33;20.00;;;-0.70;99.90;;;;;;5075080;28;20029;-74
2022/03/03 01:22:59;;;;;;;35.95;18.77;;;-0.70;99.90;;;;;;5057126;28;20025;-74
2022/03/03 01:25:25;;;;;;;32.35;17.65;;;-0.60;99.90;;;;;;5075145;28;20033;-74
2022/03/03 01:27:50;;;;;;;31.50;17.90;;;-0.70;99.90;;;;;;5074949;28;20027;-73
2022/03/03 01:30:16;;;;;;;33.08;18.92;;;-0.70;99.90;;;;;;5056858;28;20119;-73
2022/03/03 01:32:42;;;;;;;33.55;18.42;;;-0.70;99.90;;;;;;5056893;28;20111;-73
2022/03/03 01:35:08;;;;;;;36.97;19.48;;;-0.70;99.90;;;;;;5074697;28;20024;-74
2022/03/03 01:37:33;;;;;;;32.47;18.05;;;-0.70;99.90;;;;;;5074681;28;20031;-74
2022/03/03 01:39:59;;;;;;;35.30;19.38;;;-0.80;99.90;;;;;;5040118;28;20063;-73
2022/03/03 01:42:25;;;;;;;35.55;18.73;;;-0.80;99.90;;;;;;5056667;28;20055;-74
2022/03/03 01:44:50;;;;;;;38.95;20.58;;;-0.80;99.90;;;;;;5074553;28;20017;-73
2022/03/03 01:47:22;;;;;;;34.42;18.70;;;-0.80;99.90;;;;;;5056727;28;20103;-74
2022/03/03 01:49:48;;;;;;;37.72;20.00;;;-0.90;99.90;;;;;;5040087;28;20031;-74
2022/03/03 01:52:14;;;;;;;34.58;19.08;;;-0.90;99.90;;;;;;5074444;28;20016;-73
2022/03/03 01:54:40;;;;;;;36.35;19.60;;;-0.90;99.90;;;;;;5056412;28;20024;-74
2022/03/03 01:57:07;;;;;;;34.92;19.27;;;-0.90;99.90;;;;;;5074317;28;20013;-74
2022/03/03 01:59:33;;;;;;;38.55;19.85;;;-1.00;99.90;;;;;;5055522;28;20032;-74
2022/03/03 02:02:00;;;;;;;36.78;20.02;;;-1.00;99.90;;;;;;5056313;28;20070;-74
2022/03/03 02:04:26;;;;;;;36.50;19.42;;;;;;;;;;5074120;28;20519;-73
2022/03/03 02:06:51;;;;;;;38.10;20.55;;;;;;;;;;5074133;28;20108;-74
2022/03/03 02:09:17;;;;;;;34.78;20.17;;;;;;;;;;5074045;28;20115;-74
2022/03/03 02:11:46;;;;;;;33.75;19.60;;;;;;;;;;5056268;28;20032;-74
2022/03/03 02:14:12;;;;;;;38.10;20.55;;;;;;;;;;5056038;28;20507;-73
2022/03/03 02:16:39;;;;;;;36.90;20.67;;;;;;;;;;5073725;28;20048;-73
2022/03/03 02:19:05;;;;;;;39.90;21.63;;;;;;;;;;5055988;28;20025;-74
2022/03/03 02:21:31;;;;;;;37.28;20.58;;;;;;;;;;5073953;28;20048;-74
2022/03/03 02:23:57;;;;;;;37.83;20.60;;;;;;;;;;5056101;28;20379;-74
2022/03/03 02:26:23;;;;;;;38.35;20.17;;;;;;;;;;5073739;28;20036;-74
2022/03/03 02:28:50;;;;;;;37.03;21.00;;;;;;;;;;5073763;28;20103;-73
2022/03/03 02:31:17;;;;;;;37.17;20.40;;;;;;;;;;5074095;28;20075;-74
2022/03/03 02:33:43;;;;;;;37.60;20.08;;;;;;;;;;5055689;28;20585;-74
2022/03/03 02:36:20;;;;;;;38.67;21.33;;;;;;;;;;5055823;28;20490;-73
2022/03/03 02:38:47;;;;;;;35.22;19.35;;;;;;;;;;5055632;28;20017;-74
2022/03/03 02:41:13;;;;;;;41.83;21.30;;;;;;;;;;5055836;28;20021;-74
2022/03/03 02:43:39;;;;;;;41.92;21.42;;;;;;;;;;5073517;28;20482;-74
2022/03/03 02:46:06;;;;;;;39.10;20.15;;;;;;;;;;5055494;28;20029;-74
2022/03/03 02:48:32;;;;;;;39.72;20.60;;;;;;;;;;5055443;28;20445;-74
2022/03/03 02:50:58;;;;;;;38.70;21.88;;;;;;;;;;5038989;28;20052;-74
2022/03/03 02:53:24;;;;;;;39.33;20.48;;;;;;;;;;5073347;28;20100;-74
2022/03/03 02:55:50;;;;;;;38.65;21.25;;;;;;;;;;5055215;28;20048;-74
2022/03/03 02:58:16;;;;;;;43.25;21.42;;;;;;;;;;5073269;28;20494;-74
2022/03/03 03:00:44;;;;;;;40.20;21.60;;;;;;;;;;5073291;28;20523;-74
2022/03/03 03:03:10;;;;;;;41.30;22.17;;;;;;;;;;5073261;28;20471;-74
2022/03/03 03:05:36;;;;;;;38.85;21.38;;;;;;;;;;5073256;28;20060;-74
2022/03/03 03:08:03;;;;;;;44.15;22.05;;;;;;;;;;5073237;28;20040;-74
2022/03/03 03:10:29;;;;;;;41.53;22.25;;;;;;;;;;5073065;28;20047;-74
2022/03/03 03:12:55;;;;;;;46.35;23.35;;;;;;;;;;5073114;28;20107;-74
2022/03/03 03:15:21;;;;;;;44.42;23.05;;;;;;;;;;5072854;28;20045;-74
2022/03/03 03:17:47;;;;;;;47.58;22.63;;;;;;;;;;5073087;28;20028;-74
2022/03/03 03:20:13;;;;;;;45.65;23.05;;;;;;;;;;5073084;28;20436;-74
2022/03/03 03:22:39;;;;;;;44.45;23.48;;;;;;;;;;5055069;28;20550;-74
2022/03/03 03:25:07;;;;;;;54.00;24.92;;;;;;;;;;5073058;28;20035;-74
2022/03/03 03:27:34;;;;;;;54.17;25.13;;;;;;;;;;5055119;28;20047;-74
2022/03/03 03:30:00;;;;;;;54.78;26.13;;;;;;;;;;5073048;28;20394;-74
2022/03/03 03:32:26;;;;;;;51.20;25.40;;;;;;;;;;5072939;28;20024;-74
2022/03/03 03:34:52;;;;;;;53.47;26.20;;;;;;;;;;5072849;28;20028;-74
2022/03/03 03:37:18;;;;;;;49.83;24.85;;;;;;;;;;5072855;28;20391;-74
2022/03/03 03:39:44;;;;;;;46.03;24.20;;;;;;;;;;5072963;28;20534;-74
2022/03/03 03:42:09;;;;;;;51.08;25.23;;;;;;;;;;5072770;28;20111;-74
2022/03/03 03:44:37;;;;;;;47.83;23.90;;;;;;;;;;5072859;28;20063;-74
2022/03/03 03:47:04;;;;;;;48.33;24.30;;;;;;;;;;5072802;28;20017;-74
2022/03/03 03:49:30;;;;;;;51.35;25.90;;;;;;;;;;5072843;28;20070;-74
2022/03/03 03:51:55;;;;;;;45.15;23.73;;;;;;;;;;5054826;28;20025;-74
2022/03/03 03:54:21;;;;;;;46.30;23.63;;;;;;;;;;5072759;28;20059;-74
2022/03/03 03:56:47;;;;;;;47.60;22.80;;;;;;;;;;5038161;28;20107;-74
2022/03/03 03:59:13;;;;;;;43.05;22.80;;;;;;;;;;5072691;28;20534;-74
2022/03/03 04:01:39;;;;;;;44.80;24.38;;;;;;;;;;5072727;28;20097;-74
2022/03/03 04:04:05;;;;;;;50.97;24.77;;;;;;;;;;5072641;28;20025;-74
2022/03/03 04:06:32;;;;;;;46.45;23.30;;;;;;;;;;5072724;28;20029;-74
2022/03/03 04:08:58;;;;;;;47.13;24.05;;;;;;;;;;5072751;28;20020;-74
2022/03/03 04:11:24;;;;;;;49.65;25.00;;;;;;;;;;5072617;28;20028;-74
2022/03/03 04:13:50;;;;;;;42.90;23.65;;;;;;;;;;5072601;28;20024;-74
2022/03/03 04:16:16;;;;;;;45.22;22.83;;;;;;;;;;5072302;28;20487;-73
2022/03/03 04:18:42;;;;;;;51.95;24.75;;;;;;;;;;5072559;28;20028;-74
2022/03/03 04:21:08;;;;;;;50.88;25.65;;;;;;;;;;5072543;28;20032;-74
2022/03/03 04:23:34;;;;;;;50.17;24.05;;;;;;;;;;5074612;28;20382;-74
2022/03/03 04:26:00;;;;;;;47.20;24.00;;;;;;;;;;5041689;28;20415;-74
2022/03/03 04:28:26;;;;;;;49.55;25.27;;;;;;;;;;5076041;28;20067;-74
2022/03/03 04:30:52;;;;;;;53.30;25.30;;;;;;;;;;5076069;28;20207;-74
2022/03/03 04:33:18;;;;;;;47.13;24.70;;;;;;;;;;5075975;28;20029;-74
2022/03/03 04:35:44;;;;;;;48.17;24.20;;;;;;;;;;5075848;28;20024;-74
2022/03/03 04:38:10;;;;;;;46.67;24.15;;;;;;;;;;5075913;28;20437;-74
2022/03/03 04:40:36;;;;;;;48.17;24.83;;;;;;;;;;5075824;28;20441;-73
2022/03/03 04:43:01;;;;;;;40.88;22.80;;;;;;;;;;5075821;28;20107;-74
2022/03/03 04:45:27;;;;;;;50.50;24.42;;;;;;;;;;5075706;28;20028;-74
2022/03/03 04:47:54;;;;;;;43.65;24.52;;;;;;;;;;5057791;28;20032;-74
2022/03/03 04:50:20;;;;;;;45.47;23.00;;;;;;;;;;5075616;28;20036;-74
2022/03/03 04:52:46;;;;;;;49.33;25.00;;;;;;;;;;5075551;28;20028;-74
2022/03/03 04:55:12;;;;;;;46.95;24.05;;;;;;;;;;5057473;28;20036;-74
2022/03/03 04:57:38;;;;;;;48.35;24.20;;;;;;;;;;5075553;28;20536;-74
2022/03/03 05:00:05;;;;;;;50.95;24.30;;;;;;;;;;5057652;28;20112;-73
2022/03/03 05:02:31;;;;;;;51.35;24.23;;;;;;;;;;5075475;28;20103;-74
2022/03/03 05:04:57;;;;;;;47.70;24.83;;;;;;;;;;5057405;28;20111;-74
2022/03/03 05:07:23;;;;;;;45.75;22.55;;;;;;;;;;5075281;28;20107;-74
2022/03/03 05:09:49;;;;;;;44.50;23.05;;;;;;;;;;5075258;28;20024;-74
2022/03/03 05:12:15;;;;;;;43.60;22.70;;;;;;;;;;5075215;28;20437;-74
2022/03/03 05:14:41;;;;;;;47.35;23.27;;;;;;;;;;5057025;28;20024;-74
2022/03/03 05:17:07;;;;;;;40.80;22.17;;;;;;;;;;5075064;28;20082;-73
2022/03/03 05:19:33;;;;;;;44.17;22.63;;;;;;;;;;5075132;28;20037;-74
2022/03/03 05:21:59;;;;;;;45.75;23.20;;;;;;;;;;5075029;28;20074;-74
2022/03/03 05:24:25;;;;;;;46.90;22.25;;;;;;;;;;5075050;28;20055;-74
2022/03/03 05:26:50;;;;;;;38.25;21.75;;;-1.40;99.90;;;;;;5074991;28;20482;-74
2022/03/03 05:29:16;;;;;;;42.65;21.05;;;-1.40;99.90;;;;;;5057139;28;20032;-74
2022/03/03 05:31:42;;;;;;;37.35;20.83;;;-1.40;99.90;;;;;;5075121;28;20025;-74
2022/03/03 05:34:08;;;;;;;43.03;21.40;;;-1.40;99.90;;;;;;5056963;28;20390;-74
2022/03/03 05:36:39;;;;;;;41.90;22.02;;;-1.40;99.90;;;;;;5074715;28;20024;-74
2022/03/03 05:39:05;;;;;;;38.65;21.65;;;-1.40;99.90;;;;;;5056708;28;20079;-74
2022/03/03 05:41:31;;;;;;;43.20;21.42;;;-1.50;99.90;;;;;;5074751;28;20023;-73
2022/03/03 05:43:57;;;;;;;38.90;20.90;;;-1.50;99.90;;;;;;5056812;28;20391;-74
2022/03/03 05:46:23;;;;;;;39.45;20.83;;;-1.50;99.90;;;;;;5074479;28;20033;-74
2022/03/03 05:48:49;;;;;;;43.70;21.83;;;-1.50;99.90;;;;;;5056707;28;20520;-73
2022/03/03 05:51:15;;;;;;;39.78;21.38;;;-1.60;99.90;;;;;;5074761;28;20095;-74
2022/03/03 05:53:40;;;;;;;41.47;21.52;;;-1.70;99.90;;;;;;5074414;28;20027;-74
2022/03/03 05:56:10;;;;;;;37.90;21.30;;;-1.70;99.90;;;;;;5056543;28;20033;-74
2022/03/03 05:58:46;;;;;;;42.38;22.20;;;-1.60;99.90;;;;;;5074365;28;20465;-74
2022/03/03 06:01:14;;;;;;;38.83;21.02;;;-1.60;99.90;;;;;;5074198;28;20019;-73
2022/03/03 06:03:39;;;;;;;44.97;23.15;;;-1.50;99.90;;;;;;5074208;28;20409;-73
2022/03/03 06:06:14;;;;;;;45.78;22.90;;;-1.50;99.90;;;;;;5056139;28;20027;-74
2022/03/03 06:08:51;;;;;;;43.03;21.95;;;-1.50;99.90;;;;;;5057056;28;20029;-74
2022/03/03 06:11:21;;;;;;;46.22;24.23;;;-1.50;99.90;;;;;;5074044;28;20521;-74
2022/03/03 06:13:48;;;;;;;45.30;22.42;;;-1.40;99.90;;;;;;5056267;28;20082;-73
2022/03/03 06:16:20;;;;;;;41.05;22.25;;;-1.40;99.90;;;;;;5073717;28;20501;-74
2022/03/03 06:18:48;;;;;;;39.38;22.10;;;-1.40;99.90;;;;;;5055908;28;20027;-73
2022/03/03 06:21:15;;;;;;;36.53;21.60;;;-1.40;99.90;;;;;;5039313;28;20055;-74
2022/03/03 06:23:41;;;;;;;44.47;21.30;;;-1.40;99.90;;;;;;5073761;28;20027;-74
2022/03/03 06:26:10;;;;;;;49.13;22.90;;;-1.40;99.90;;;;;;5073711;28;20029;-74
2022/03/03 06:28:36;;;;;;;37.00;20.23;;;-1.30;99.90;;;;;;5055878;28;20033;-73
2022/03/03 06:31:03;;;;;;;44.97;22.60;;;-1.20;99.90;;;;;;5073732;28;20385;-73
2022/03/03 06:33:29;;;;;;;42.00;21.42;;;-0.90;99.90;;;;;;5056001;28;20032;-73
2022/03/03 06:35:55;;;;;;;43.92;21.95;;;-0.50;99.90;;;;;;5055517;28;20025;-74
2022/03/03 06:38:21;;;;;;;35.78;20.42;;;0.00;99.90;;;;;;5055755;28;20498;-74
2022/03/03 06:40:46;;;;;;;38.20;21.35;;;0.40;99.90;;;;;;5073533;28;20021;-73
2022/03/03 06:43:12;;;;;;;37.72;20.15;;;0.70;99.90;;;;;;5055447;28;20025;-74
2022/03/03 06:45:37;;;;;;;38.85;20.88;;;0.90;99.90;;;;;;5073020;28;20459;-74
2022/03/03 06:48:04;;;;;;;38.55;19.58;;;1.30;99.90;;;;;;5073372;28;20029;-74
2022/03/03 06:50:36;;;;;;;37.33;20.15;;;1.90;99.90;;;;;;5073526;28;20021;-74
2022/03/03 06:53:03;;;;;;;32.65;19.63;;;2.70;99.90;;;;;;5073446;28;20527;-74
2022/03/03 06:55:30;;;;;;;28.05;18.45;;;3.60;99.90;;;;;;5054986;28;20035;-74
2022/03/03 06:57:57;;;;;;;32.67;18.85;;;4.20;99.90;;;;;;5055445;28;20153;-74
2022/03/03 07:00:26;;;;;;;31.50;19.45;;;4.70;99.90;;;;;;5073095;28;20020;-74
2022/03/03 07:02:53;;;;;;;33.13;19.27;;;4.70;99.90;;;;;;5073027;28;20020;-74
2022/03/03 07:05:20;;;;;;;33.67;18.77;;;4.90;99.90;;;;;;5073097;28;20017;-74
2022/03/03 07:07:47;;;;;;;32.20;19.40;;;5.50;99.90;;;;;;5073093;28;20385;-73
2022/03/03 07:10:14;;;;;;;30.13;18.55;;;6.00;99.90;;;;;;5073017;28;20406;-74
2022/03/03 07:12:41;;;;;;;26.13;18.05;;;6.90;99.90;;;;;;5073134;28;20494;-74
2022/03/03 07:15:08;;;;;;;28.77;18.20;;;7.50;99.90;;;;;;5055006;28;20063;-74
2022/03/03 07:17:45;;;;;;;27.77;18.38;;;8.30;99.90;;;;;;5073068;28;20024;-74
2022/03/03 07:20:17;;;;;;;25.77;17.00;;;8.40;98.40;;;;;;5038645;28;20028;-74
2022/03/03 07:23:04;;;;;;;24.75;16.92;;;9.10;95.00;;;;;;5072987;28;20031;-73
2022/03/03 07:25:40;;;;;;;26.70;18.05;;;9.50;92.60;;;;;;5055593;28;20124;-74
2022/03/03 07:28:08;;;;;;;25.10;18.02;;;9.20;91.50;;;;;;5063849;28;20107;-74
2022/03/03 07:30:40;;;;;;;24.27;16.50;;;8.90;91.70;;;;;;5074846;28;20028;-74
2022/03/03 07:33:27;;;;;;;23.23;17.02;;;9.00;90.40;;;;;;5090615;28;20036;-74
2022/03/03 07:35:56;;;;;;;27.27;18.15;;;9.60;88.60;;;;;;5090937;28;20032;-73
2022/03/03 07:38:26;;;;;;;23.85;17.08;;;9.80;88.20;;;;;;5092639;28;20020;-74
2022/03/03 07:40:52;;;;;;;25.20;17.55;;;10.10;84.60;;;;;;5055850;28;20027;-74
2022/03/03 07:43:19;;;;;;;28.85;17.42;;;10.20;81.60;;;;;;5072982;28;20069;-73
2022/03/03 07:45:46;;;;;;;25.25;16.98;;;10.60;78.00;;;;;;5064853;28;20028;-73
2022/03/03 07:48:13;;;;;;;23.65;17.60;;;11.30;73.40;;;;;;5091798;28;20035;-73
2022/03/03 07:50:39;;;;;;;26.52;17.70;;;11.00;73.30;;;;;;5074591;28;20028;-74
2022/03/03 07:53:09;;;;;;;28.52;18.30;;;10.90;71.40;;;;;;5074130;28;20062;-73
2022/03/03 07:55:42;;;;;;;23.42;16.98;;;11.30;69.10;;;;;;5074067;28;20489;-73
2022/03/03 07:58:12;;;;;;;29.80;16.92;;;10.80;74.20;;;;;;5094010;28;20066;-73
2022/03/03 08:00:40;;;;;;;25.60;17.05;;;11.70;66.00;;;;;;5084246;28;20390;-74
2022/03/03 08:03:08;;;;;;;29.40;18.15;;;12.30;62.10;;;;;;5061058;28;20020;-73
2022/03/03 08:05:35;;;;;;;28.63;18.67;;;12.20;62.50;;;;;;5054222;28;20081;-74
2022/03/03 08:08:02;;;;;;;24.75;17.60;;;12.00;61.60;;;;;;5088627;28;20510;-73
2022/03/03 08:10:30;;;;;;;26.10;18.13;;;12.80;60.10;;;;;;5095316;28;20024;-74
2022/03/03 08:12:58;;;;;;;26.33;17.48;;;12.40;59.30;;;;;;5077248;28;20024;-74
2022/03/03 08:15:23;;;;;;;27.75;18.05;;;12.20;58.50;;;;;;5090391;28;20036;-74
2022/03/03 08:17:51;;;;;;;24.77;17.70;;;12.40;59.00;;;;;;5095687;28;20359;-74
2022/03/03 08:20:18;;;;;;;25.23;17.02;;;12.50;59.90;;;;;;5060668;28;20031;-74
2022/03/03 08:22:44;;;;;;;24.58;17.80;;;12.90;61.20;;;;;;5065579;28;20097;-74
2022/03/03 08:25:11;;;;;;;28.02;18.00;;;13.00;57.80;;;;;;5083419;28;20543;-73
2022/03/03 08:27:38;;;;;;;24.42;17.80;;;13.30;57.00;;;;;;5065579;28;20034;-74
2022/03/03 08:30:06;;;;;;;25.10;17.35;;;12.90;57.50;;;;;;5064069;28;20020;-73
2022/03/03 08:32:37;;;;;;;24.33;18.08;;;13.40;57.10;;;;;;5087779;28;20028;-74
2022/03/03 08:35:16;;;;;;;24.77;17.35;;;13.00;57.60;;;;;;5076383;28;20020;-72
2022/03/03 08:37:44;;;;;;;23.08;16.27;;;13.10;56.20;;;;;;5082539;28;20020;-73
2022/03/03 08:40:14;;;;;;;24.58;18.20;;;13.00;57.30;;;;;;5065065;28;20027;-72
2022/03/03 08:42:46;;;;;;;23.80;16.83;;;13.30;57.40;;;;;;5093648;28;20024;-74
2022/03/03 08:45:12;;;;;;;23.60;16.73;;;13.10;55.50;;;;;;5092063;28;20469;-72
2022/03/03 08:47:39;;;;;;;23.17;16.60;;;13.20;56.10;;;;;;5076459;28;20541;-73
2022/03/03 08:50:10;;;;;;;22.17;16.45;;;12.50;58.10;;;;;;5064306;28;20101;-73
2022/03/03 08:52:41;;;;;;;26.45;16.52;;;13.10;55.40;;;;;;5068584;28;20023;-73
2022/03/03 08:55:09;;;;;;;22.15;17.20;;;13.50;56.10;;;;;;5083068;28;20520;-73
2022/03/03 08:57:37;;;;;;;24.67;17.33;;;13.70;55.40;;;;;;5092709;28;20085;-72
2022/03/03 09:00:05;;;;;;;25.48;16.75;;;13.60;55.30;;;;;;5097514;28;20084;-72
2022/03/03 09:02:31;;;;;;;25.65;18.10;;;13.20;56.80;;;;;;5079659;28;20024;-73
2022/03/03 09:04:57;;;;;;;28.30;17.42;;;13.00;56.50;;;;;;5081031;28;20040;-73
2022/03/03 09:07:22;;;;;;;26.38;16.85;;;12.80;57.20;;;;;;5089289;28;20153;-72
2022/03/03 09:09:47;;;;;;;21.60;16.63;;;12.80;56.70;;;;;;5072841;28;20024;-70
2022/03/03 09:12:13;;;;;;;24.92;17.25;;;11.20;60.90;;;;;;5095019;28;20024;-71
2022/03/03 09:14:39;;;;;;;22.05;16.98;;;12.20;64.80;;;;;;5093649;28;20375;-69
2022/03/03 09:17:05;;;;;;;25.13;17.45;;;11.90;62.90;;;;;;5088441;28;20401;-70
2022/03/03 09:19:30;;;;;;;22.83;15.98;;;12.20;62.40;;;;;;5086602;28;20027;-70
2022/03/03 09:21:56;;;;;;;24.52;16.60;;;12.40;61.70;;;;;;5094028;28;20020;-70
2022/03/03 09:24:23;;;;;;;21.20;15.93;;;11.90;62.70;;;;;;5094798;28;20508;-70
2022/03/03 09:26:50;;;;;;;23.17;16.58;;;12.70;61.20;;;;;;5075676;28;20024;-70
2022/03/03 09:29:17;;;;;;;22.52;16.75;;;13.30;59.20;;;;;;5071005;28;20052;-70
2022/03/03 09:31:44;;;;;;;21.35;15.50;;;12.50;61.50;;;;;;5094038;28;20024;-70
2022/03/03 09:34:09;;;;;;;20.77;15.25;;;13.60;57.20;;;;;;5076308;28;20028;-70
2022/03/03 09:36:35;;;;;;;22.77;15.48;;;14.10;56.90;;;;;;5058700;28;20043;-70
2022/03/03 09:39:01;;;;;;;23.60;15.52;;;14.00;55.60;;;;;;5087028;28;20020;-69
2022/03/03 09:41:26;;;;;;;21.60;15.15;;;14.00;53.50;;;;;;5093384;28;20085;-71
2022/03/03 09:43:52;;;;;;;22.27;16.58;;;14.10;52.60;;;;;;5093226;28;20031;-69
2022/03/03 09:46:17;;;;;;;21.52;16.63;;;14.30;52.40;;;;;;5065708;28;20025;-70
2022/03/03 09:48:43;;;;;;;25.90;16.50;;;13.70;51.70;;;;;;5094330;28;20130;-70
2022/03/03 09:51:08;;;;;;;24.13;16.80;;;14.00;54.50;;;;;;5092518;28;20524;-69
2022/03/03 09:53:38;;;;;;;22.55;15.68;;;13.40;52.90;;;;;;5094375;28;20058;-70
2022/03/03 09:56:04;;;;;;;18.80;15.38;;;13.70;53.20;;;;;;5086713;28;20417;-69
2022/03/03 09:58:29;;;;;;;22.90;16.15;;;14.40;53.10;;;;;;5082814;28;20020;-69
2022/03/03 10:00:56;;;;;;;20.70;15.88;;;14.60;51.90;;;;;;5093405;28;20028;-69
2022/03/03 10:03:22;;;;;;;22.38;16.35;;;14.40;50.80;;;;;;5058966;28;20027;-69
2022/03/03 10:05:50;;;;;;;21.50;15.25;;;14.00;50.90;;;;;;5091384;28;20032;-70
2022/03/03 10:08:30;;;;;;;22.60;15.60;;;13.80;50.90;;;;;;5075934;28;20035;-70
2022/03/03 10:17:47;;;;;;;22.38;15.48;;;13.10;53.40;;;;;;5090857;28;20403;-71
2022/03/03 10:20:12;;;;;;;20.85;15.95;;;14.20;51.50;;;;;;5090150;28;20040;-71
2022/03/03 10:22:46;;;;;;;22.92;15.82;;;13.30;50.70;;;;;;5074152;28;20028;-71
2022/03/03 10:25:12;;;;;;;;;;;13.00;51.00;;;;;;5073953;28;20500;-70
2022/03/03 10:27:38;;;;;;;22.52;15.38;;;12.70;51.90;;;;;;5069917;28;19955;-70
2022/03/03 10:30:06;;;;;;;24.38;16.25;;;12.40;53.10;;;;;;5088170;28;20094;-70
2022/03/03 10:40:23;;;;;;;24.88;14.75;;;13.00;52.80;;;;;;5070125;28;20701;-70
2022/03/03 10:42:50;;;;;;;21.30;14.20;;;12.50;48.80;;;;;;5055013;28;20079;-70
2022/03/03 10:45:19;;;;;;;20.15;14.07;;;12.30;51.20;;;;;;5052881;28;20029;-69
2022/03/03 10:47:57;;;;;;;20.15;14.75;;;12.60;51.00;;;;;;5039647;28;20021;-70
2022/03/03 10:50:23;;;;;;;24.38;14.77;;;12.80;50.00;;;;;;5055641;28;20030;-70
2022/03/03 10:52:48;;;;;;;20.95;14.73;;;12.80;50.70;;;;;;5044467;28;20384;-70
2022/03/03 10:55:17;;;;;;;18.27;14.00;;;13.50;52.10;;;;;;5056784;28;20057;-70
2022/03/03 10:57:56;;;;;;;19.20;14.40;;;14.10;49.60;;;;;;5038296;28;20097;-69
2022/03/03 11:00:25;;;;;;;18.67;14.00;;;13.70;48.00;;;;;;5047169;28;20112;-70
2022/03/03 11:02:56;;;;;;;20.00;14.32;;;13.00;49.20;;;;;;5041512;28;20040;-70
2022/03/03 11:05:23;;;;;;;18.65;14.90;;;12.80;50.90;;;;;;5037463;28;20021;-69
2022/03/03 11:07:51;;;;;;;20.02;15.48;;;12.80;50.70;;;;;;5041785;28;20475;-70
2022/03/03 11:10:19;;;;;;;22.77;15.13;;;12.40;51.20;;;;;;5048239;28;20124;-71
2022/03/03 11:12:46;;;;;;;19.80;14.25;;;12.80;51.10;;;;;;5061908;28;20522;-70
2022/03/03 11:15:14;;;;;;;24.60;15.05;;;13.30;51.20;;;;;;5047973;28;20458;-70
2022/03/03 11:17:39;;;;;;;19.92;15.73;;;13.70;51.10;;;;;;5046182;28;20119;-70
2022/03/03 11:20:07;;;;;;;20.38;14.95;;;14.00;49.60;;;;;;5061420;28;20072;-69
2022/03/03 11:22:33;;;;;;;24.50;15.85;;;13.30;50.00;;;;;;5032077;28;20025;-70
2022/03/03 11:25:01;;;;;;;21.38;15.27;;;13.20;51.60;;;;;;5038198;28;20104;-71
2022/03/03 11:27:35;;;;;;;19.60;14.40;;;13.50;49.80;;;;;;5049255;28;20028;-70
2022/03/03 11:30:25;;;;;;;23.13;15.35;;;13.20;49.90;;;;;;5047460;28;20041;-70
2022/03/03 11:33:28;;;;;;;20.58;14.98;;;13.10;50.30;;;;;;5048984;28;20017;-71
2022/03/03 11:35:59;;;;;;;22.35;14.18;;;12.40;51.10;;;;;;5049070;28;20086;-71
2022/03/03 11:38:27;;;;;;;21.48;15.45;;;12.70;52.90;;;;;;5059969;28;20034;-72
2022/03/03 11:43:49;;;;;;;23.42;15.13;;;12.40;51.00;;;;;;5066233;28;20427;-71
2022/03/03 11:46:34;;;;;;;;;;;11.60;53.30;;;;;;5046955;28;20017;-71
2022/03/03 11:49:20;;;;;;;24.00;15.43;;;11.40;52.80;;;;;;5048996;28;19910;-71
2022/03/03 11:51:48;;;;;;;22.48;15.27;;;11.80;53.90;;;;;;5051426;28;20033;-70
2022/03/03 11:54:15;;;;;;;22.55;15.07;;;12.10;53.30;;;;;;5050419;28;20505;-71
2022/03/03 11:57:07;;;;;;;22.67;15.02;;;11.80;51.30;;;;;;5050166;28;20415;-70
2022/03/03 11:59:38;;;;;;;24.75;15.38;;;11.90;53.20;;;;;;5040731;28;20038;-70
2022/03/03 12:02:04;;;;;;;23.40;15.00;;;11.50;50.90;;;;;;5041379;28;20033;-70
2022/03/03 12:04:29;;;;;;;18.92;13.50;;;11.40;51.40;;;;;;5049888;28;20434;-70
2022/03/03 12:06:55;;;;;;;20.23;14.20;;;11.20;51.30;;;;;;5056544;28;20032;-71
2022/03/03 12:09:30;;;;;;;22.55;13.98;;;11.20;51.50;;;;;;5066103;28;20037;-71
2022/03/03 12:12:19;;;;;;;20.70;14.18;;;11.40;52.60;;;;;;5048804;28;20095;-71
2022/03/03 12:14:55;;;;;;;20.75;15.07;;;11.70;52.80;;;;;;5053467;28;20020;-71
2022/03/03 12:17:42;;;;;;;19.05;13.75;;;11.40;51.50;;;;;;5063416;28;20387;-71
2022/03/03 12:23:13;;;;;;;22.33;15.05;;;11.70;54.50;;;;;;5110616;27;20315;-70
2022/03/03 12:25:55;;;;;;;19.05;13.30;;;12.00;54.80;;;;;;5110841;28;20024;-70
2022/03/03 12:28:24;;;;;;;21.33;14.13;;;12.00;52.60;;;;;;5071932;28;20060;-70
2022/03/03 12:30:51;;;;;;;21.52;14.15;;;11.90;53.70;;;;;;5103500;28;20024;-70
2022/03/03 12:33:23;;;;;;;24.45;15.30;;;12.00;53.40;;;;;;5109171;28;20073;-70
2022/03/03 12:35:49;;;;;;;24.50;15.45;;;11.80;54.70;;;;;;5108980;28;20067;-69
2022/03/03 12:38:15;;;;;;;20.45;14.60;;;11.60;55.90;;;;;;5108809;28;20030;-69
2022/03/03 12:40:41;;;;;;;20.17;13.77;;;11.40;56.10;;;;;;5110097;28;20028;-70
2022/03/03 12:43:13;;;;;;;23.58;13.75;;;11.50;56.30;;;;;;5108862;28;20115;-70
2022/03/03 12:45:39;;;;;;;21.90;13.55;;;11.70;56.10;;;;;;5110525;28;20057;-70
2022/03/03 12:48:06;;;;;;;17.88;11.95;;;11.60;55.60;;;;;;5120040;28;20031;-71
2022/03/03 12:50:33;;;;;;;19.27;12.07;;;11.30;55.70;;;;;;5110075;28;20386;-69
2022/03/03 12:53:11;;;;;;;20.42;12.30;;;11.30;56.40;;;;;;5108498;28;20028;-70
2022/03/03 12:55:43;;;;;;;17.85;12.68;;;11.40;56.40;;;;;;5109886;28;20034;-70
2022/03/03 12:58:10;;;;;;;17.90;11.85;;;11.50;56.50;;;;;;5110156;28;20493;-70
2022/03/03 13:00:40;;;;;;;16.67;11.93;;;11.40;56.40;;;;;;5108898;28;20020;-71
2022/03/03 13:03:07;;;;;;;17.63;12.38;;;11.20;56.80;;;;;;5110171;28;20073;-70
2022/03/03 13:05:51;;;;;;;20.30;12.40;;;11.40;58.50;;;;;;5108381;28;20073;-70
2022/03/03 13:08:26;;;;;;;18.20;10.50;;;11.30;57.30;;;;;;5110034;28;20020;-70
2022/03/03 13:10:55;;;;;;;18.40;12.00;;;11.30;58.80;;;;;;5108578;28;20012;-70
2022/03/03 13:13:21;;;;;;;16.85;11.00;;;11.10;59.10;;;;;;5108792;28;20023;-70
2022/03/03 13:15:47;;;;;;;18.27;10.95;;;11.20;59.30;;;;;;5088114;28;20404;-70
2022/03/03 13:18:18;;;;;;;16.70;11.88;;;11.20;59.40;;;;;;5089628;28;20107;-71